Time,TemperatureF,DewpointF,PressureIn,WindDirection,WindDirectionDegrees,WindSpeedMPH,WindSpeedGustMPH,Humidity,HourlyPrecipIn,Conditions,Clouds,dailyrainin,SolarRadiationWatts/m^2,SoftwareType,DateUTC
2013-02-26 07:25:00,27.1,11.8,30.02,West,277,1.0,17.0,52,0.00,,,0.00,35,Wunderground v.1.15,2013-02-26 14:25:00,
2013-02-26 07:30:00,27.6,11.8,30.02,West,276,1.0,17.0,51,0.00,,,0.00,39,Wunderground v.1.15,2013-02-26 14:30:00,
2013-02-26 07:40:00,28.9,12.1,30.03,WNW,284,2.0,7.0,49,0.00,,,0.00,44,Wunderground v.1.15,2013-02-26 14:40:00,
2013-02-26 07:50:00,30.7,12.8,30.03,WSW,244,3.0,7.0,47,0.00,,,0.00,47,Wunderground v.1.15,2013-02-26 14:50:00,
2013-02-26 08:00:00,31.8,13.8,30.03,West,262,4.0,4.0,47,0.00,,,0.00,49,Wunderground v.1.15,2013-02-26 15:00:00,
2013-02-26 08:10:00,32.6,14.1,30.03,West,270,3.0,7.0,46,0.00,,,0.00,130,Wunderground v.1.15,2013-02-26 15:10:00,
2013-02-26 08:20:00,33.2,14.1,30.03,WSW,245,3.0,7.0,45,0.00,,,0.00,309,Wunderground v.1.15,2013-02-26 15:20:00,
2013-02-26 08:25:00,33.7,14.1,30.03,SSW,206,3.0,7.0,44,0.00,,,0.00,327,Wunderground v.1.15,2013-02-26 15:25:00,
2013-02-26 08:35:00,34.7,13.9,30.03,SW,227,3.0,4.0,42,0.00,,,0.00,56,Wunderground v.1.15,2013-02-26 15:35:00,
2013-02-26 08:40:00,34.6,13.8,30.03,WSW,247,3.0,3.0,42,0.00,,,0.00,56,Wunderground v.1.15,2013-02-26 15:40:00,
2013-02-26 08:50:00,35.1,14.3,30.03,SW,229,4.0,4.0,42,0.00,,,0.00,406,Wunderground v.1.15,2013-02-26 15:50:00,
2013-02-26 08:55:00,35.5,14.1,30.03,WSW,258,4.0,7.0,41,0.00,,,0.00,425,Wunderground v.1.15,2013-02-26 15:55:00,
2013-02-26 09:05:00,36.5,13.9,30.03,WSW,251,2.0,7.0,39,0.00,,,0.00,455,Wunderground v.1.15,2013-02-26 16:05:00,
2013-02-26 09:10:00,37.1,13.8,30.03,SSW,212,2.0,2.0,38,0.00,,,0.00,469,Wunderground v.1.15,2013-02-26 16:10:00,
2013-02-26 09:15:00,37.5,14.2,30.03,WSW,246,2.0,7.0,38,0.00,,,0.00,483,Wunderground v.1.15,2013-02-26 16:15:00,
2013-02-26 09:25:00,38.3,13.0,30.03,SW,218,3.0,7.0,35,0.00,,,0.00,513,Wunderground v.1.15,2013-02-26 16:25:00,
2013-02-26 09:35:00,39.4,12.6,30.02,SW,221,2.0,7.0,33,0.00,,,0.00,541,Wunderground v.1.15,2013-02-26 16:35:00,
2013-02-26 09:45:00,40.1,13.3,30.02,SW,223,2.0,4.0,33,0.00,,,0.00,566,Wunderground v.1.15,2013-02-26 16:45:00,
2013-02-26 09:50:00,40.4,12.8,30.02,WSW,238,2.0,7.0,32,0.00,,,0.00,578,Wunderground v.1.15,2013-02-26 16:50:00,
2013-02-26 09:55:00,40.7,13.1,30.01,SW,215,2.0,7.0,32,0.00,,,0.00,589,Wunderground v.1.15,2013-02-26 16:55:00,
2013-02-26 10:05:00,41.5,13.1,30.01,SW,217,2.0,7.0,31,0.00,,,0.00,615,Wunderground v.1.15,2013-02-26 17:05:00,
2013-02-26 10:15:00,42.2,12.9,30.01,South,190,2.0,7.0,30,0.00,,,0.00,635,Wunderground v.1.15,2013-02-26 17:15:00,
2013-02-26 10:20:00,42.9,12.8,30.00,South,188,2.0,7.0,29,0.00,,,0.00,645,Wunderground v.1.15,2013-02-26 17:20:00,
2013-02-26 10:30:00,43.6,12.6,30.00,WSW,248,3.0,7.0,28,0.00,,,0.00,666,Wunderground v.1.15,2013-02-26 17:30:00,
2013-02-26 10:40:00,45.6,8.9,30.00,WNW,299,5.0,7.0,22,0.00,,,0.00,686,Wunderground v.1.15,2013-02-26 17:40:00,
2013-02-26 10:45:00,47.2,7.0,30.00,North,360,6.0,11.0,19,0.00,,,0.00,696,Wunderground v.1.15,2013-02-26 17:45:00,
2013-02-26 10:55:00,47.9,6.4,30.00,NW,323,7.0,9.0,18,0.00,,,0.00,710,Wunderground v.1.15,2013-02-26 17:55:00,
2013-02-26 11:05:00,47.4,7.1,29.99,NW,317,5.0,7.0,19,0.00,,,0.00,726,Wunderground v.1.15,2013-02-26 18:05:00,
2013-02-26 11:10:00,46.6,7.6,29.99,NW,311,5.0,9.0,20,0.00,,,0.00,731,Wunderground v.1.15,2013-02-26 18:10:00,
2013-02-26 11:15:00,47.3,8.2,29.98,NW,319,7.0,9.0,20,0.00,,,0.00,740,Wunderground v.1.15,2013-02-26 18:15:00,
2013-02-26 11:25:00,46.7,7.7,29.98,NW,305,7.0,7.0,20,0.00,,,0.00,751,Wunderground v.1.15,2013-02-26 18:25:00,
2013-02-26 11:35:00,45.1,6.3,29.98,NW,308,10.0,19.0,20,0.00,,,0.00,756,Wunderground v.1.15,2013-02-26 18:35:00,
2013-02-26 11:40:00,45.1,7.4,29.99,NW,317,9.0,19.0,21,0.00,,,0.00,761,Wunderground v.1.15,2013-02-26 18:40:00,
2013-02-26 11:50:00,45.0,8.4,29.99,WNW,300,8.0,13.0,22,0.00,,,0.00,840,Wunderground v.1.15,2013-02-26 18:50:00,
2013-02-26 11:55:00,45.0,8.4,29.98,NW,314,8.0,13.0,22,0.00,,,0.00,775,Wunderground v.1.15,2013-02-26 18:55:00,
2013-02-26 12:05:00,44.5,7.9,29.99,NW,317,10.0,12.0,22,0.00,,,0.00,772,Wunderground v.1.15,2013-02-26 19:05:00,
2013-02-26 12:15:00,44.3,7.8,29.98,NW,321,9.0,10.0,22,0.00,,,0.00,773,Wunderground v.1.15,2013-02-26 19:15:00,
2013-02-26 12:25:00,44.2,7.7,29.98,NNW,331,10.0,10.0,22,0.00,,,0.00,833,Wunderground v.1.15,2013-02-26 19:25:00,
2013-02-26 12:30:00,43.7,8.3,29.98,NW,324,11.0,11.0,23,0.00,,,0.00,791,Wunderground v.1.15,2013-02-26 19:30:00,
2013-02-26 12:40:00,44.3,7.8,29.97,WNW,303,9.0,9.0,22,0.00,,,0.00,768,Wunderground v.1.15,2013-02-26 19:40:00,
2013-02-26 12:50:00,45.1,5.2,29.97,WNW,302,8.0,18.0,19,0.00,,,0.00,768,Wunderground v.1.15,2013-02-26 19:50:00,
2013-02-26 12:55:00,46.1,3.6,29.97,WNW,289,8.0,18.0,17,0.00,,,0.00,766,Wunderground v.1.15,2013-02-26 19:55:00,
2013-02-26 13:05:00,44.9,3.9,29.96,NW,317,11.0,17.0,18,0.00,,,0.00,754,Wunderground v.1.15,2013-02-26 20:05:00,
2013-02-26 13:10:00,45.1,4.0,29.97,NW,310,9.0,9.0,18,0.00,,,0.00,780,Wunderground v.1.15,2013-02-26 20:10:00,
2013-02-26 13:20:00,44.8,2.6,29.96,NNW,328,10.0,10.0,17,0.00,,,0.00,744,Wunderground v.1.15,2013-02-26 20:20:00,
2013-02-26 13:30:00,44.8,-0.1,29.96,NNW,331,10.0,10.0,15,0.00,,,0.00,737,Wunderground v.1.15,2013-02-26 20:30:00,
2013-02-26 13:40:00,46.1,-0.6,29.96,North,355,10.0,13.0,14,0.00,,,0.00,726,Wunderground v.1.15,2013-02-26 20:40:00,
2013-02-26 13:45:00,45.0,0.0,29.96,North,10,9.0,13.0,15,0.00,,,0.00,714,Wunderground v.1.15,2013-02-26 20:45:00,
2013-02-26 13:50:00,44.2,0.8,29.97,WNW,292,10.0,17.0,16,0.00,,,0.00,707,Wunderground v.1.15,2013-02-26 20:50:00,
2013-02-26 14:00:00,43.8,0.4,29.97,NW,304,11.0,11.0,16,0.00,,,0.00,689,Wunderground v.1.15,2013-02-26 21:00:00,
2013-02-26 14:10:00,43.9,0.5,29.98,NNW,335,10.0,11.0,16,0.00,,,0.00,46,Wunderground v.1.15,2013-02-26 21:10:00,
2013-02-26 14:15:00,43.4,0.1,29.97,NNW,329,11.0,13.0,16,0.00,,,0.00,37,Wunderground v.1.15,2013-02-26 21:15:00,
2013-02-26 14:25:00,43.0,1.1,29.98,North,360,12.0,12.0,17,0.00,,,0.00,35,Wunderground v.1.15,2013-02-26 21:25:00,
2013-02-26 14:30:00,42.9,-0.3,29.99,NW,317,11.0,13.0,16,0.00,,,0.00,33,Wunderground v.1.15,2013-02-26 21:30:00,
2013-02-26 14:40:00,42.5,-0.6,30.00,NNW,345,12.0,12.0,16,0.00,,,0.00,32,Wunderground v.1.15,2013-02-26 21:40:00,
2013-02-26 14:45:00,42.5,-2.0,30.00,NNW,329,11.0,12.0,15,0.00,,,0.00,32,Wunderground v.1.15,2013-02-26 21:45:00,
2013-02-26 14:55:00,42.9,-0.3,30.00,NW,321,10.0,11.0,16,0.00,,,0.00,33,Wunderground v.1.15,2013-02-26 21:55:00,
2013-02-26 15:05:00,42.6,-0.5,30.01,NNW,333,9.0,10.0,16,0.00,,,0.00,40,Wunderground v.1.15,2013-02-26 22:05:00,
2013-02-26 15:10:00,43.0,-1.6,30.01,NNW,334,7.0,7.0,15,0.00,,,0.00,54,Wunderground v.1.15,2013-02-26 22:10:00,
2013-02-26 15:20:00,43.1,-0.1,30.01,NNW,329,10.0,10.0,16,0.00,,,0.00,47,Wunderground v.1.15,2013-02-26 22:20:00,
2013-02-26 15:25:00,42.4,-0.7,30.01,WNW,302,7.0,10.0,16,0.00,,,0.00,93,Wunderground v.1.15,2013-02-26 22:25:00,
2013-02-26 15:35:00,42.2,-2.2,30.01,NNW,341,9.0,9.0,15,0.00,,,0.00,47,Wunderground v.1.15,2013-02-26 22:35:00,
2013-02-26 15:45:00,42.4,-2.1,30.02,WNW,295,8.0,10.0,15,0.00,,,0.00,39,Wunderground v.1.15,2013-02-26 22:45:00,
2013-02-26 15:50:00,42.5,-3.5,30.02,NW,310,9.0,15.0,14,0.00,,,0.00,25,Wunderground v.1.15,2013-02-26 22:50:00,
2013-02-26 16:00:00,40.4,-3.7,30.02,NW,321,12.0,12.0,15,0.00,,,0.00,46,Wunderground v.1.15,2013-02-26 23:00:00,
2013-02-26 16:05:00,40.1,-2.6,30.03,NW,306,10.0,12.0,16,0.00,,,0.00,72,Wunderground v.1.15,2013-02-26 23:05:00,
2013-02-26 16:15:00,39.2,-3.3,30.03,NW,315,12.0,13.0,16,0.00,,,0.00,32,Wunderground v.1.15,2013-02-26 23:15:00,
2013-02-26 16:25:00,40.1,-3.9,30.03,NW,325,8.0,10.0,15,0.00,,,0.00,25,Wunderground v.1.15,2013-02-26 23:25:00,
2013-02-26 16:30:00,39.6,-4.4,30.03,NW,315,9.0,9.0,15,0.00,,,0.00,25,Wunderground v.1.15,2013-02-26 23:30:00,
2013-02-26 16:40:00,38.9,-4.9,30.04,WNW,302,10.0,14.0,15,0.00,,,0.00,23,Wunderground v.1.15,2013-02-26 23:40:00,
2013-02-26 16:50:00,38.7,-5.1,30.05,NW,317,10.0,10.0,15,0.00,,,0.00,21,Wunderground v.1.15,2013-02-26 23:50:00,
2013-02-26 16:55:00,38.4,-4.0,30.05,NW,307,11.0,11.0,16,0.00,,,0.00,19,Wunderground v.1.15,2013-02-26 23:55:00,
2013-02-26 17:05:00,38.5,-3.9,30.05,NW,323,6.0,9.0,16,0.00,,,0.00,19,Wunderground v.1.15,2013-02-27 00:05:00,
2013-02-26 17:10:00,38.4,-4.0,30.05,WNW,292,6.0,6.0,16,0.00,,,0.00,18,Wunderground v.1.15,2013-02-27 00:10:00,
2013-02-26 17:20:00,38.1,-3.0,30.05,NNW,338,8.0,8.0,17,0.00,,,0.00,14,Wunderground v.1.15,2013-02-27 00:20:00,
2013-02-26 17:30:00,37.6,-3.4,30.06,WNW,298,8.0,9.0,17,0.00,,,0.00,12,Wunderground v.1.15,2013-02-27 00:30:00,
2013-02-26 17:35:00,37.3,-2.4,30.06,NW,311,9.0,11.0,18,0.00,,,0.00,11,Wunderground v.1.15,2013-02-27 00:35:00,
2013-02-26 17:45:00,36.7,-1.8,30.07,WNW,290,9.0,9.0,19,0.00,,,0.00,7,Wunderground v.1.15,2013-02-27 00:45:00,
2013-02-26 17:50:00,36.5,-1.9,30.07,NW,321,8.0,8.0,19,0.00,,,0.00,5,Wunderground v.1.15,2013-02-27 00:50:00,
2013-02-26 18:00:00,36.1,-1.2,30.08,NW,310,9.0,11.0,20,0.00,,,0.00,0,Wunderground v.1.15,2013-02-27 01:00:00,
2013-02-26 18:10:00,35.6,-1.6,30.09,NW,310,10.0,10.0,20,0.00,,,0.00,0,Wunderground v.1.15,2013-02-27 01:10:00,
2013-02-26 18:15:00,35.4,-1.8,30.10,NW,315,9.0,10.0,20,0.00,,,0.00,0,Wunderground v.1.15,2013-02-27 01:15:00,
2013-02-26 18:25:00,35.1,-1.0,30.10,NW,308,9.0,15.0,21,0.00,,,0.00,0,Wunderground v.1.15,2013-02-27 01:25:00,
2013-02-26 18:35:00,34.8,0.7,30.10,WNW,295,8.0,9.0,23,0.00,,,0.00,0,Wunderground v.1.15,2013-02-27 01:35:00,
2013-02-26 18:40:00,34.7,2.4,30.10,NW,304,9.0,9.0,25,0.00,,,0.00,0,Wunderground v.1.15,2013-02-27 01:40:00,
2013-02-26 18:50:00,34.3,2.9,30.11,NW,304,7.0,7.0,26,0.00,,,0.00,0,Wunderground v.1.15,2013-02-27 01:50:00,
2013-02-26 19:00:00,33.9,3.4,30.11,NW,320,8.0,8.0,27,0.00,,,0.00,0,Wunderground v.1.15,2013-02-27 02:00:00,
2013-02-26 19:10:00,33.7,3.2,30.11,NW,304,8.0,8.0,27,0.00,,,0.00,0,Wunderground v.1.15,2013-02-27 02:10:00,
2013-02-26 19:15:00,33.5,3.0,30.11,WNW,297,8.0,14.0,27,0.00,,,0.00,0,Wunderground v.1.15,2013-02-27 02:15:00,
2013-02-26 19:25:00,33.2,2.8,30.13,NW,325,5.0,10.0,27,0.00,,,0.00,0,Wunderground v.1.15,2013-02-27 02:25:00,
2013-02-26 19:35:00,33.1,1.9,30.13,WNW,294,5.0,7.0,26,0.00,,,0.00,0,Wunderground v.1.15,2013-02-27 02:35:00,
2013-02-26 19:45:00,32.8,1.6,30.14,NW,310,5.0,7.0,26,0.00,,,0.00,0,Wunderground v.1.15,2013-02-27 02:45:00,
2013-02-26 19:55:00,32.5,1.4,30.15,NW,310,4.0,9.0,26,0.00,,,0.00,0,Wunderground v.1.15,2013-02-27 02:55:00,
2013-02-26 20:00:00,32.5,1.4,30.15,NW,304,4.0,4.0,26,0.00,,,0.00,0,Wunderground v.1.15,2013-02-27 03:00:00,
2013-02-26 20:10:00,32.4,1.3,30.15,NW,308,7.0,8.0,26,0.00,,,0.00,0,Wunderground v.1.15,2013-02-27 03:10:00,
2013-02-26 20:15:00,32.4,2.1,30.15,WNW,300,7.0,11.0,27,0.00,,,0.00,0,Wunderground v.1.15,2013-02-27 03:15:00,
2013-02-26 20:25:00,32.1,1.8,30.16,NW,320,7.0,7.0,27,0.00,,,0.00,0,Wunderground v.1.15,2013-02-27 03:25:00,
2013-02-26 20:35:00,31.7,2.3,30.17,NW,309,5.0,9.0,28,0.00,,,0.00,0,Wunderground v.1.15,2013-02-27 03:35:00,
2013-02-26 20:40:00,31.6,2.2,30.17,NW,308,5.0,8.0,28,0.00,,,0.00,0,Wunderground v.1.15,2013-02-27 03:40:00,
2013-02-26 20:50:00,31.5,2.8,30.17,NW,319,7.0,7.0,29,0.00,,,0.00,0,Wunderground v.1.15,2013-02-27 03:50:00,
2013-02-26 21:00:00,31.2,2.6,30.17,NNW,329,7.0,7.0,29,0.00,,,0.00,0,Wunderground v.1.15,2013-02-27 04:00:00,
2013-02-26 21:05:00,31.2,2.6,30.18,NW,316,7.0,10.0,29,0.00,,,0.00,0,Wunderground v.1.15,2013-02-27 04:05:00,
2013-02-26 21:15:00,30.8,2.2,30.19,NNW,338,7.0,12.0,29,0.00,,,0.00,0,Wunderground v.1.15,2013-02-27 04:15:00,
2013-02-26 21:20:00,30.7,2.9,30.19,NNW,340,6.0,10.0,30,0.00,,,0.00,0,Wunderground v.1.15,2013-02-27 04:20:00,
2013-02-26 21:30:00,30.5,3.4,30.19,NW,310,6.0,6.0,31,0.00,,,0.00,0,Wunderground v.1.15,2013-02-27 04:30:00,
2013-02-26 21:40:00,30.3,3.9,30.19,NNW,341,7.0,9.0,32,0.00,,,0.00,0,Wunderground v.1.15,2013-02-27 04:40:00,
2013-02-26 21:50:00,30.1,4.4,30.20,NNW,327,6.0,7.0,33,0.00,,,0.00,0,Wunderground v.1.15,2013-02-27 04:50:00,
2013-02-26 21:55:00,30.1,4.4,30.20,NW,307,7.0,7.0,33,0.00,,,0.00,0,Wunderground v.1.15,2013-02-27 04:55:00,
2013-02-26 22:00:00,30.0,5.0,30.20,NW,323,7.0,8.0,34,0.00,,,0.00,0,Wunderground v.1.15,2013-02-27 05:00:00,
2013-02-26 22:05:00,29.8,4.8,30.21,NW,315,6.0,8.0,34,0.00,,,0.00,0,Wunderground v.1.15,2013-02-27 05:05:00,
2013-02-26 22:10:00,29.7,5.3,30.21,NW,326,4.0,8.0,35,0.00,,,0.00,0,Wunderground v.1.15,2013-02-27 05:10:00,
2013-02-26 22:20:00,29.5,5.2,30.21,NW,306,5.0,8.0,35,0.00,,,0.00,0,Wunderground v.1.15,2013-02-27 05:20:00,
2013-02-26 22:25:00,29.4,5.7,30.21,NW,311,5.0,8.0,36,0.00,,,0.00,0,Wunderground v.1.15,2013-02-27 05:25:00,
2013-02-26 22:30:00,29.4,5.7,30.22,NNW,327,6.0,6.0,36,0.00,,,0.00,0,Wunderground v.1.15,2013-02-27 05:30:00,
2013-02-26 22:35:00,29.3,5.6,30.22,NW,309,6.0,7.0,36,0.00,,,0.00,0,Wunderground v.1.15,2013-02-27 05:35:00,
2013-02-26 22:40:00,29.2,6.1,30.22,NW,315,5.0,5.0,37,0.00,,,0.00,0,Wunderground v.1.15,2013-02-27 05:40:00,